Ben-my-chree — MXLG6 — position and weather

sailwx.info

Track history (hours):
 
Tides and Currents Weather Stations Pressure Air Temp Water Temp Dewpoint Dewpoint Depression Visibility Wind Speed Wind Dir Waves Ship Positions

Ben-my-chree

Operator: The Isle of Man Steam Packet Co Ltd

Last reported at 2017-Sep-22 01:51 UTC. Time now 2017-Sep-22 06:13 UTC.
Position N 53°56' W 003°12'.

Length 120 m; draft 5 m.

Type: Passenger vessel. MMSI: 234983000.

Date/timePositionNaut miles runAvg speedWind from/ knotsBaromVisibWave heightAir tempDewpointWater temp
2017-Sep-22 01:51N 53°56' W 003°12'12 3.0
2017-Sep-21 21:59N 54°02' W 002°55'919.3
2017-Sep-21 21:30N 53°56' W 003°08'1019.6
2017-Sep-21 21:00N 53°55' W 003°24'37 7.7
2017-Sep-21 16:16N 54°08' W 004°22'3317.9
2017-Sep-21 14:26N 53°56' W 003°31'1118.8
2017-Sep-21 13:51N 53°56' W 003°12'719.5
2017-Sep-21 13:30N 53°58' W 003°02'0 0.2
2017-Sep-21 10:35N 53°59' W 003°01'420.9
2017-Sep-21 10:23N 53°56' W 003°07'919.1
2017-Sep-21 09:53N 53°55' W 003°23'718.4
2017-Sep-21 09:30N 53°57' W 003°35'0 0.0
2017-Sep-21 02:24N 53°57' W 003°35'1319.4
2017-Sep-21 01:44N 53°56' W 003°13'619.6
2017-Sep-21 01:27N 53°58' W 003°04'7 1.9
2017-Sep-20 21:55N 54°02' W 002°55'818.2
2017-Sep-20 21:30N 53°57' W 003°05'919.1
2017-Sep-20 21:00N 53°55' W 003°21'918.3
2017-Sep-20 20:30N 53°57' W 003°36'32 7.8
2017-Sep-20 16:25N 54°09' W 004°27'717.8
2017-Sep-20 16:00N 54°06' W 004°15'918.3
2017-Sep-20 15:30N 54°03' W 004°01'1618.6
2017-Sep-20 14:40N 53°57' W 003°36'1319.0
2017-Sep-20 14:00N 53°56' W 003°15'7 2.2
2017-Sep-20 10:42N 53°58' W 003°03'2 9.0
2017-Sep-20 10:29N 53°57' W 003°06'918.1
2017-Sep-20 10:00N 53°56' W 003°20'917.9
2017-Sep-20 09:30N 53°57' W 003°35'33 6.3
2017-Sep-20 04:21N 54°09' W 004°27'717.3
2017-Sep-20 03:56N 54°08' W 004°15'917.6
2017-Sep-20 03:25N 54°03' W 004°02'1718.0
2017-Sep-20 02:30N 53°57' W 003°36'1118.2
2017-Sep-20 01:53N 53°55' W 003°17'719.5
2017-Sep-20 01:30N 53°58' W 003°05'0 0.1
2017-Sep-19 21:26N 53°58' W 003°04'819.4
2017-Sep-19 21:00N 53°55' W 003°18'918.5
2017-Sep-19 20:30N 53°57' W 003°33'33 7.6
2017-Sep-19 16:14N 54°09' W 004°25'618.4
2017-Sep-19 15:55N 54°06' W 004°16'1318.5
2017-Sep-19 15:13N 54°02' W 003°55'1018.3
2017-Sep-19 14:39N 53°58' W 003°39'718.5
2017-Sep-19 14:18N 53°56' W 003°28'1019.1
2017-Sep-19 13:46N 53°56' W 003°11'520.3
2017-Sep-19 13:31N 53°58' W 003°03'6 2.3
2017-Sep-19 10:55N 54°02' W 002°55'716.2
2017-Sep-19 10:29N 53°57' W 003°04'918.2
2017-Sep-19 10:00N 53°56' W 003°19'918.7
2017-Sep-19 09:30N 53°56' W 003°35'31 5.7
2017-Sep-19 04:10N 54°08' W 004°23'3317.3
2017-Sep-19 02:14N 53°56' W 003°30'419.1
2017-Sep-19 02:00N 53°56' W 003°22'1019.3
2017-Sep-19 01:30N 53°57' W 003°06'8 2.3
2017-Sep-18 21:57N 54°02' W 002°55'714.9
2017-Sep-18 21:29N 53°58' W 003°04'918.5
2017-Sep-18 21:00N 53°55' W 003°19'918.2
2017-Sep-18 20:30N 53°57' W 003°34'31 7.4
2017-Sep-18 16:18N 54°09' W 004°23'1818.2
2017-Sep-18 15:18N 54°01' W 003°55'1618.3
2017-Sep-18 14:24N 53°56' W 003°29'918.9
2017-Sep-18 13:55N 53°56' W 003°13'12 4.0
2017-Sep-18 10:58N 54°02' W 002°56'715.4
2017-Sep-18 10:30N 53°57' W 003°05'917.4
2017-Sep-18 10:00N 53°56' W 003°19'917.6
2017-Sep-18 09:30N 53°57' W 003°34'31 5.9
2017-Sep-18 04:12N 54°08' W 004°23'1518.0
2017-Sep-18 03:22N 54°03' W 004°00'2018.6
2017-Sep-18 02:18N 53°55' W 003°29'919.0
2017-Sep-18 01:48N 53°56' W 003°13'620.4
2017-Sep-18 01:30N 53°58' W 003°03'6 2.0
2017-Sep-17 22:27N 54°02' W 002°55'715.3
2017-Sep-17 21:59N 53°57' W 003°05'817.2
2017-Sep-17 21:30N 53°55' W 003°18'917.5
2017-Sep-17 21:00N 53°56' W 003°33'32 7.1
2017-Sep-17 16:32N 54°08' W 004°23'118.1
2017-Sep-17 16:30N 54°08' W 004°22'1217.6
2017-Sep-17 15:50N 54°04' W 004°03'1617.6
2017-Sep-17 14:55N 53°58' W 003°38'817.9
2017-Sep-17 14:28N 53°56' W 003°25'918.3
2017-Sep-17 14:00N 53°56' W 003°10'2 0.8
2017-Sep-17 10:53N 53°57' W 003°06'716.2
2017-Sep-17 10:28N 53°55' W 003°17'816.8
2017-Sep-17 10:00N 53°56' W 003°31'52 8.3
2017-Sep-17 03:42N 54°07' W 004°58'318.1
2017-Sep-17 03:30N 54°10' W 005°01'918.1
2017-Sep-17 03:00N 54°18' W 005°08'918.1
2017-Sep-17 02:30N 54°26' W 005°14'917.7
2017-Sep-17 02:00N 54°34' W 005°22'917.6
2017-Sep-17 01:31N 54°42' W 005°29'816.3
2017-Sep-17 01:00N 54°42' W 005°43'713.8
2017-Sep-17 00:30N 54°38' W 005°53'2 2.9
2017-Sep-16 23:55N 54°37' W 005°55'0 0.0
2017-Sep-16 23:30N 54°37' W 005°55'2 3.2
2017-Sep-16 23:00N 54°38' W 005°53'714.0
2017-Sep-16 22:30N 54°42' W 005°44'918.2
2017-Sep-16 22:00N 54°43' W 005°28'918.5
2017-Sep-16 21:30N 54°39' W 005°13'918.1
2017-Sep-16 21:00N 54°35' W 004°59'917.7
2017-Sep-16 20:30N 54°32' W 004°45'58 9.7
2017-Sep-16 14:31N 53°56' W 003°27'017.6
2017-Sep-16 14:30N 53°56' W 003°27'917.7
2017-Sep-16 14:00N 53°55' W 003°12'4 1.2
2017-Sep-16 10:42N 53°57' W 003°06'316.2
2017-Sep-16 10:30N 53°56' W 003°11'816.7
2017-Sep-16 10:00N 53°55' W 003°25'39 6.9
2017-Sep-16 04:23N 54°09' W 004°26'1917.3
2017-Sep-16 03:17N 54°02' W 003°56'1817.3
2017-Sep-16 02:15N 53°55' W 003°28'917.7
2017-Sep-16 01:43N 53°56' W 003°12'418.9
2017-Sep-16 01:29N 53°57' W 003°05'8 2.5
2017-Sep-15 22:23N 54°02' W 002°55'713.9
2017-Sep-15 21:53N 53°57' W 003°04'616.7
2017-Sep-15 21:30N 53°55' W 003°14'917.1
2017-Sep-15 21:00N 53°56' W 003°29'35 8.4
2017-Sep-15 16:52N 54°09' W 004°24'3416.7
2017-Sep-15 14:48N 53°56' W 003°29'1016.7
2017-Sep-15 14:12N 53°56' W 003°12'317.4
2017-Sep-15 14:00N 53°57' W 003°06'0 0.1
2017-Sep-15 11:05N 53°57' W 003°06'115.7
2017-Sep-15 11:00N 53°56' W 003°08'816.3
2017-Sep-15 10:30N 53°56' W 003°22'816.1
2017-Sep-15 10:01N 53°57' W 003°35'13 2.1
2017-Sep-15 03:50N 54°02' W 003°56'1716.1
2017-Sep-15 02:47N 53°56' W 003°29'1016.1
2017-Sep-15 02:11N 53°56' W 003°12'316.9
2017-Sep-15 02:00N 53°57' W 003°07'0 0.1
2017-Sep-14 22:38N 53°56' W 003°07'216.0
2017-Sep-14 22:30N 53°55' W 003°11'916.7
2017-Sep-14 21:59N 53°56' W 003°26'816.6
2017-Sep-14 21:30N 53°57' W 003°39'6 1.0
2017-Sep-14 15:04N 53°56' W 003°28'114.8
2017-Sep-14 15:00N 53°56' W 003°27'1015.0
2017-Sep-14 14:22N 53°56' W 003°10'4 1.1
2017-Sep-14 10:48N 53°57' W 003°04'516.0
2017-Sep-14 10:30N 53°56' W 003°11'816.9
2017-Sep-14 10:00N 53°55' W 003°26'816.7
2017-Sep-14 09:30N 53°58' W 003°39'15 3.0
2017-Sep-14 04:32N 54°04' W 004°02'2115.8
2017-Sep-14 03:11N 53°56' W 003°29'315.6
2017-Sep-14 03:00N 53°56' W 003°24'815.6
2017-Sep-14 02:30N 53°56' W 003°11'3 0.6
2017-Sep-13 22:00N 53°57' W 003°07'816.3
2017-Sep-13 21:30N 53°55' W 003°21'816.7
2017-Sep-13 21:00N 53°57' W 003°35'28 7.4
2017-Sep-13 17:10N 54°07' W 004°20'1516.5
2017-Sep-13 16:15N 54°02' W 003°56'1015.9
2017-Sep-13 15:36N 53°58' W 003°39'615.5
2017-Sep-13 15:12N 53°56' W 003°30'1115.4
2017-Sep-13 14:31N 53°56' W 003°11'015.1
2017-Sep-13 14:30N 53°56' W 003°11'714.6
2017-Sep-13 14:00N 53°59' W 003°00'3 0.9
2017-Sep-13 10:48N 53°58' W 003°04'516.6
2017-Sep-13 10:30N 53°55' W 003°11'917.2
2017-Sep-13 10:00N 53°55' W 003°26'917.0
2017-Sep-13 09:30N 53°58' W 003°40'10 0.6
2017-Sep-12 15:39N 54°02' W 003°56'1216.8
2017-Sep-12 14:56N 53°58' W 003°37'1515.7
2017-Sep-12 14:00N 53°56' W 003°12'11 4.1
2017-Sep-12 11:12N 54°02' W 002°55'716.4
2017-Sep-12 10:46N 53°57' W 003°05'518.1
2017-Sep-12 10:30N 53°56' W 003°12'918.0
2017-Sep-12 10:00N 53°55' W 003°28'917.7
2017-Sep-12 09:29N 53°57' W 003°43'28 6.6
2017-Sep-12 05:14N 54°09' W 004°26'417.5
2017-Sep-12 05:00N 54°08' W 004°20'1317.5
2017-Sep-12 04:17N 54°03' W 003°60'1716.6
2017-Sep-12 03:14N 53°56' W 003°33'416.0
2017-Sep-12 03:00N 53°56' W 003°27'815.6
2017-Sep-12 02:28N 53°56' W 003°13'714.8
2017-Sep-12 01:58N 53°59' W 003°01'  
Track history (hours):
 
Tides and Currents Weather Stations Pressure Air Temp Water Temp Dewpoint Dewpoint Depression Visibility Wind Speed Wind Dir Waves Ship Positions

Ben-my-chree

Operator: The Isle of Man Steam Packet Co Ltd

Last reported at 2017-Sep-22 01:51 UTC. Time now 2017-Sep-22 06:13 UTC.
Position N 53°56' W 003°12'.

Length 120 m; draft 5 m.

Type: Passenger vessel. MMSI: 234983000.

Date/timePositionNaut miles runAvg speedWind from/ knotsBaromVisibWave heightAir tempDewpointWater temp
2017-Sep-22 01:51N 53°56' W 003°12'12 3.0
2017-Sep-21 21:59N 54°02' W 002°55'919.3
2017-Sep-21 21:30N 53°56' W 003°08'1019.6
2017-Sep-21 21:00N 53°55' W 003°24'37 7.7
2017-Sep-21 16:16N 54°08' W 004°22'3317.9
2017-Sep-21 14:26N 53°56' W 003°31'1118.8
2017-Sep-21 13:51N 53°56' W 003°12'719.5
2017-Sep-21 13:30N 53°58' W 003°02'0 0.2
2017-Sep-21 10:35N 53°59' W 003°01'420.9
2017-Sep-21 10:23N 53°56' W 003°07'919.1
2017-Sep-21 09:53N 53°55' W 003°23'718.4
2017-Sep-21 09:30N 53°57' W 003°35'0 0.0
2017-Sep-21 02:24N 53°57' W 003°35'1319.4
2017-Sep-21 01:44N 53°56' W 003°13'619.6
2017-Sep-21 01:27N 53°58' W 003°04'7 1.9
2017-Sep-20 21:55N 54°02' W 002°55'818.2
2017-Sep-20 21:30N 53°57' W 003°05'919.1
2017-Sep-20 21:00N 53°55' W 003°21'918.3
2017-Sep-20 20:30N 53°57' W 003°36'32 7.8
2017-Sep-20 16:25N 54°09' W 004°27'717.8
2017-Sep-20 16:00N 54°06' W 004°15'918.3
2017-Sep-20 15:30N 54°03' W 004°01'1618.6
2017-Sep-20 14:40N 53°57' W 003°36'1319.0
2017-Sep-20 14:00N 53°56' W 003°15'7 2.2
2017-Sep-20 10:42N 53°58' W 003°03'2 9.0
2017-Sep-20 10:29N 53°57' W 003°06'918.1
2017-Sep-20 10:00N 53°56' W 003°20'917.9
2017-Sep-20 09:30N 53°57' W 003°35'33 6.3
2017-Sep-20 04:21N 54°09' W 004°27'717.3
2017-Sep-20 03:56N 54°08' W 004°15'917.6
2017-Sep-20 03:25N 54°03' W 004°02'1718.0
2017-Sep-20 02:30N 53°57' W 003°36'1118.2
2017-Sep-20 01:53N 53°55' W 003°17'719.5
2017-Sep-20 01:30N 53°58' W 003°05'0 0.1
2017-Sep-19 21:26N 53°58' W 003°04'819.4
2017-Sep-19 21:00N 53°55' W 003°18'918.5
2017-Sep-19 20:30N 53°57' W 003°33'33 7.6
2017-Sep-19 16:14N 54°09' W 004°25'618.4
2017-Sep-19 15:55N 54°06' W 004°16'1318.5
2017-Sep-19 15:13N 54°02' W 003°55'1018.3
2017-Sep-19 14:39N 53°58' W 003°39'718.5
2017-Sep-19 14:18N 53°56' W 003°28'1019.1
2017-Sep-19 13:46N 53°56' W 003°11'520.3
2017-Sep-19 13:31N 53°58' W 003°03'6 2.3
2017-Sep-19 10:55N 54°02' W 002°55'716.2
2017-Sep-19 10:29N 53°57' W 003°04'918.2
2017-Sep-19 10:00N 53°56' W 003°19'918.7
2017-Sep-19 09:30N 53°56' W 003°35'31 5.7
2017-Sep-19 04:10N 54°08' W 004°23'3317.3
2017-Sep-19 02:14N 53°56' W 003°30'419.1
2017-Sep-19 02:00N 53°56' W 003°22'1019.3
2017-Sep-19 01:30N 53°57' W 003°06'8 2.3
2017-Sep-18 21:57N 54°02' W 002°55'714.9
2017-Sep-18 21:29N 53°58' W 003°04'918.5
2017-Sep-18 21:00N 53°55' W 003°19'918.2
2017-Sep-18 20:30N 53°57' W 003°34'31 7.4
2017-Sep-18 16:18N 54°09' W 004°23'1818.2
2017-Sep-18 15:18N 54°01' W 003°55'1618.3
2017-Sep-18 14:24N 53°56' W 003°29'918.9
2017-Sep-18 13:55N 53°56' W 003°13'12 4.0
2017-Sep-18 10:58N 54°02' W 002°56'715.4
2017-Sep-18 10:30N 53°57' W 003°05'917.4
2017-Sep-18 10:00N 53°56' W 003°19'917.6
2017-Sep-18 09:30N 53°57' W 003°34'31 5.9
2017-Sep-18 04:12N 54°08' W 004°23'1518.0
2017-Sep-18 03:22N 54°03' W 004°00'2018.6
2017-Sep-18 02:18N 53°55' W 003°29'919.0
2017-Sep-18 01:48N 53°56' W 003°13'620.4
2017-Sep-18 01:30N 53°58' W 003°03'6 2.0
2017-Sep-17 22:27N 54°02' W 002°55'715.3
2017-Sep-17 21:59N 53°57' W 003°05'817.2
2017-Sep-17 21:30N 53°55' W 003°18'917.5
2017-Sep-17 21:00N 53°56' W 003°33'32 7.1
2017-Sep-17 16:32N 54°08' W 004°23'118.1
2017-Sep-17 16:30N 54°08' W 004°22'1217.6
2017-Sep-17 15:50N 54°04' W 004°03'1617.6
2017-Sep-17 14:55N 53°58' W 003°38'817.9
2017-Sep-17 14:28N 53°56' W 003°25'918.3
2017-Sep-17 14:00N 53°56' W 003°10'2 0.8
2017-Sep-17 10:53N 53°57' W 003°06'716.2
2017-Sep-17 10:28N 53°55' W 003°17'816.8
2017-Sep-17 10:00N 53°56' W 003°31'52 8.3
2017-Sep-17 03:42N 54°07' W 004°58'318.1
2017-Sep-17 03:30N 54°10' W 005°01'918.1
2017-Sep-17 03:00N 54°18' W 005°08'918.1
2017-Sep-17 02:30N 54°26' W 005°14'917.7
2017-Sep-17 02:00N 54°34' W 005°22'917.6
2017-Sep-17 01:31N 54°42' W 005°29'816.3
2017-Sep-17 01:00N 54°42' W 005°43'713.8
2017-Sep-17 00:30N 54°38' W 005°53'2 2.9
2017-Sep-16 23:55N 54°37' W 005°55'0 0.0
2017-Sep-16 23:30N 54°37' W 005°55'2 3.2
2017-Sep-16 23:00N 54°38' W 005°53'714.0
2017-Sep-16 22:30N 54°42' W 005°44'918.2
2017-Sep-16 22:00N 54°43' W 005°28'918.5
2017-Sep-16 21:30N 54°39' W 005°13'918.1
2017-Sep-16 21:00N 54°35' W 004°59'917.7
2017-Sep-16 20:30N 54°32' W 004°45'58 9.7
2017-Sep-16 14:31N 53°56' W 003°27'017.6
2017-Sep-16 14:30N 53°56' W 003°27'917.7
2017-Sep-16 14:00N 53°55' W 003°12'4 1.2
2017-Sep-16 10:42N 53°57' W 003°06'316.2
2017-Sep-16 10:30N 53°56' W 003°11'816.7
2017-Sep-16 10:00N 53°55' W 003°25'39 6.9
2017-Sep-16 04:23N 54°09' W 004°26'1917.3
2017-Sep-16 03:17N 54°02' W 003°56'1817.3
2017-Sep-16 02:15N 53°55' W 003°28'917.7
2017-Sep-16 01:43N 53°56' W 003°12'418.9
2017-Sep-16 01:29N 53°57' W 003°05'8 2.5
2017-Sep-15 22:23N 54°02' W 002°55'713.9
2017-Sep-15 21:53N 53°57' W 003°04'616.7
2017-Sep-15 21:30N 53°55' W 003°14'917.1
2017-Sep-15 21:00N 53°56' W 003°29'35 8.4
2017-Sep-15 16:52N 54°09' W 004°24'3416.7
2017-Sep-15 14:48N 53°56' W 003°29'1016.7
2017-Sep-15 14:12N 53°56' W 003°12'317.4
2017-Sep-15 14:00N 53°57' W 003°06'0 0.1
2017-Sep-15 11:05N 53°57' W 003°06'115.7
2017-Sep-15 11:00N 53°56' W 003°08'816.3
2017-Sep-15 10:30N 53°56' W 003°22'816.1
2017-Sep-15 10:01N 53°57' W 003°35'13 2.1
2017-Sep-15 03:50N 54°02' W 003°56'1716.1
2017-Sep-15 02:47N 53°56' W 003°29'1016.1
2017-Sep-15 02:11N 53°56' W 003°12'316.9
2017-Sep-15 02:00N 53°57' W 003°07'0 0.1
2017-Sep-14 22:38N 53°56' W 003°07'216.0
2017-Sep-14 22:30N 53°55' W 003°11'916.7
2017-Sep-14 21:59N 53°56' W 003°26'816.6
2017-Sep-14 21:30N 53°57' W 003°39'6 1.0
2017-Sep-14 15:04N 53°56' W 003°28'114.8
2017-Sep-14 15:00N 53°56' W 003°27'1015.0
2017-Sep-14 14:22N 53°56' W 003°10'4 1.1
2017-Sep-14 10:48N 53°57' W 003°04'516.0
2017-Sep-14 10:30N 53°56' W 003°11'816.9
2017-Sep-14 10:00N 53°55' W 003°26'816.7
2017-Sep-14 09:30N 53°58' W 003°39'15 3.0
2017-Sep-14 04:32N 54°04' W 004°02'2115.8
2017-Sep-14 03:11N 53°56' W 003°29'315.6
2017-Sep-14 03:00N 53°56' W 003°24'815.6
2017-Sep-14 02:30N 53°56' W 003°11'3 0.6
2017-Sep-13 22:00N 53°57' W 003°07'816.3
2017-Sep-13 21:30N 53°55' W 003°21'816.7
2017-Sep-13 21:00N 53°57' W 003°35'28 7.4
2017-Sep-13 17:10N 54°07' W 004°20'1516.5
2017-Sep-13 16:15N 54°02' W 003°56'1015.9
2017-Sep-13 15:36N 53°58' W 003°39'615.5
2017-Sep-13 15:12N 53°56' W 003°30'1115.4
2017-Sep-13 14:31N 53°56' W 003°11'015.1
2017-Sep-13 14:30N 53°56' W 003°11'714.6
2017-Sep-13 14:00N 53°59' W 003°00'3 0.9
2017-Sep-13 10:48N 53°58' W 003°04'516.6
2017-Sep-13 10:30N 53°55' W 003°11'917.2
2017-Sep-13 10:00N 53°55' W 003°26'917.0
2017-Sep-13 09:30N 53°58' W 003°40'10 0.6
2017-Sep-12 15:39N 54°02' W 003°56'1216.8
2017-Sep-12 14:56N 53°58' W 003°37'1515.7
2017-Sep-12 14:00N 53°56' W 003°12'11 4.1
2017-Sep-12 11:12N 54°02' W 002°55'716.4
2017-Sep-12 10:46N 53°57' W 003°05'518.1
2017-Sep-12 10:30N 53°56' W 003°12'918.0
2017-Sep-12 10:00N 53°55' W 003°28'917.7
2017-Sep-12 09:29N 53°57' W 003°43'28 6.6
2017-Sep-12 05:14N 54°09' W 004°26'417.5
2017-Sep-12 05:00N 54°08' W 004°20'1317.5
2017-Sep-12 04:17N 54°03' W 003°60'1716.6
2017-Sep-12 03:14N 53°56' W 003°33'416.0
2017-Sep-12 03:00N 53°56' W 003°27'815.6
2017-Sep-12 02:28N 53°56' W 003°13'714.8
2017-Sep-12 01:58N 53°59' W 003°01'  

Dump ship's entire track history